Time;durP1;ratioP1;P1;durP2;ratioP2;P2;SDS_P1;SDS_P2;PMS_P1;PMS_P2;Temp;Humidity;BMP_temperature;BMP_pressure;BME280_temperature;BME280_humidity;BME280_pressure;Samples;Min_cycle;Max_cycle;Signal;HPM_P1;HPM_P2
2023/01/24 00:00:39;;;;;;;26.63;11.70;;;;;;;;;;5074466;28;20284;-68
2023/01/24 00:03:04;;;;;;;25.75;12.80;;;;;;;;;;5072390;28;20045;-68
2023/01/24 00:05:29;;;;;;;24.15;13.93;;;;;;;;;;5077534;28;20024;-67
2023/01/24 00:07:54;;;;;;;25.97;13.30;;;;;;;;;;5071140;28;20035;-67
2023/01/24 00:10:20;;;;;;;26.37;14.80;;;;;;;;;;5063902;28;20029;-67
2023/01/24 00:12:45;;;;;;;29.13;14.48;;;;;;;;;;5066053;28;20277;-68
2023/01/24 00:15:10;;;;;;;27.10;13.93;;;;;;;;;;5067418;28;20746;-67
2023/01/24 00:17:36;;;;;;;30.17;14.13;;;;;;;;;;5067813;28;20286;-66
2023/01/24 00:20:01;;;;;;;28.88;14.70;;;;;;;;;;5064420;28;20048;-68
2023/01/24 00:22:27;;;;;;;30.35;15.90;;;;;;;;;;5063671;28;20123;-68
2023/01/24 00:24:52;;;;;;;33.20;17.00;;;;;;;;;;5069327;28;20053;-68
2023/01/24 00:27:17;;;;;;;34.43;17.57;;;;;;;;;;5068575;28;20270;-68
2023/01/24 00:29:43;;;;;;;29.55;14.85;;;;;;;;;;5067975;28;20055;-67
2023/01/24 00:32:08;;;;;;;24.45;13.50;;;;;;;;;;5065878;28;20095;-68
2023/01/24 00:34:33;;;;;;;26.58;14.52;;;;;;;;;;5073698;28;20397;-68
2023/01/24 00:36:59;;;;;;;31.43;14.20;;;;;;;;;;5072067;28;20477;-67
2023/01/24 00:39:24;;;;;;;30.43;15.00;;;;;;;;;;5068762;28;20028;-67
2023/01/24 00:41:49;;;;;;;30.63;16.33;;;;;;;;;;5051428;28;20336;-68
2023/01/24 00:44:14;;;;;;;32.27;15.13;;;;;;;;;;5068276;28;20526;-67
2023/01/24 00:46:41;;;;;;;26.20;14.77;;;;;;;;;;5067437;28;20402;-68
2023/01/24 00:49:06;;;;;;;36.97;18.55;;;;;;;;;;5070021;28;20021;-68
2023/01/24 00:51:31;;;;;;;42.80;21.02;;;;;;;;;;5068719;28;20039;-68
2023/01/24 00:53:57;;;;;;;36.37;18.00;;;;;;;;;;5067310;28;20143;-68
2023/01/24 00:56:22;;;;;;;31.50;15.88;;;;;;;;;;5069657;28;20260;-68
2023/01/24 00:58:47;;;;;;;35.67;18.83;;;;;;;;;;5068143;28;20063;-69
2023/01/24 01:01:12;;;;;;;30.13;16.77;;;;;;;;;;5072912;28;20032;-68
2023/01/24 01:03:38;;;;;;;30.47;16.27;;;;;;;;;;5052834;28;20086;-67
2023/01/24 01:06:05;;;;;;;29.63;16.23;;;;;;;;;;5057644;28;20816;-68
2023/01/24 01:08:30;;;;;;;30.77;15.15;;;;;;;;;;5058408;28;20843;-67
2023/01/24 01:10:55;;;;;;;28.52;14.55;;;;;;;;;;5062099;28;20024;-67
2023/01/24 01:13:21;;;;;;;26.08;13.63;;;;;;;;;;5070202;28;20040;-67
2023/01/24 01:15:46;;;;;;;29.07;15.57;;;;;;;;;;5071277;28;20053;-68
2023/01/24 01:18:11;;;;;;;28.35;14.75;;;;;;;;;;5069818;28;20272;-67
2023/01/24 01:20:36;;;;;;;29.27;15.47;;;;;;;;;;5073134;28;20027;-68
2023/01/24 01:23:02;;;;;;;26.48;14.75;;;;;;;;;;5071143;28;20028;-68
2023/01/24 01:25:28;;;;;;;28.65;14.68;;;;;;;;;;5072323;28;20032;-68
2023/01/24 01:27:53;;;;;;;31.08;14.45;;;;;;;;;;5073201;28;20029;-68
2023/01/24 01:30:18;;;;;;;33.87;15.40;;;;;;;;;;5072218;28;20424;-68
2023/01/24 01:32:43;;;;;;;39.50;16.90;;;;;;;;;;5069196;28;20283;-68
2023/01/24 01:35:09;;;;;;;36.03;16.93;;;;;;;;;;5061283;28;20288;-67
2023/01/24 01:37:34;;;;;;;28.80;14.17;;;;;;;;;;5064089;28;20493;-69
2023/01/24 01:39:59;;;;;;;30.27;15.00;;;;;;;;;;5064779;28;20108;-68
2023/01/24 01:42:25;;;;;;;29.63;15.10;;;;;;;;;;5058204;28;20032;-68
2023/01/24 01:44:50;;;;;;;28.52;15.27;;;;;;;;;;5063739;28;20048;-67
2023/01/24 01:47:18;;;;;;;30.60;15.53;;;;;;;;;;5063097;28;20532;-68
2023/01/24 01:49:54;;;;;;;32.28;15.95;;;;;;;;;;5066159;28;20090;-68
2023/01/24 01:52:19;;;;;;;37.75;17.92;;;;;;;;;;5062932;28;20024;-67
2023/01/24 01:54:45;;;;;;;39.40;18.58;;;;;;;;;;5072772;28;20115;-68
2023/01/24 01:57:20;;;;;;;34.72;17.70;;;;;;;;;;5075431;28;20055;-67
2023/01/24 01:59:49;;;;;;;29.92;16.10;;;;;;;;;;5068029;28;20027;-67
2023/01/24 02:02:15;;;;;;;28.40;14.75;;;;;;;;;;5065063;28;20032;-68
2023/01/24 02:04:44;;;;;;;30.52;15.15;;;;;;;;;;5065727;28;20016;-69
2023/01/24 02:07:20;;;;;;;28.48;15.10;;;;;;;;;;5065431;28;20025;-67
2023/01/24 02:09:47;;;;;;;29.95;14.57;;;;;;;;;;5064946;28;20445;-68
2023/01/24 02:12:15;;;;;;;25.45;14.00;;;;;;;;;;5065202;28;20095;-68
2023/01/24 02:17:25;;;;;;;31.08;16.17;;;;;;;;;;5065541;28;20058;-69
2023/01/24 02:19:56;;;;;;;30.42;15.27;;;;;;;;;;5064041;28;20466;-68
2023/01/24 02:22:30;;;;;;;33.20;15.57;;;;;;;;;;5068330;28;20086;-67
2023/01/24 02:25:05;;;;;;;32.72;16.20;;;;;;;;;;5068900;28;20565;-68
2023/01/24 02:27:31;;;;;;;32.38;15.25;;;;;;;;;;5074829;28;20394;-67
2023/01/24 02:29:56;;;;;;;31.57;14.97;;;;;;;;;;5073707;28;20040;-68
2023/01/24 02:32:22;;;;;;;29.25;15.27;;;;;;;;;;5071549;28;20306;-67
2023/01/24 02:34:47;;;;;;;28.60;15.30;;;;;;;;;;5072164;28;20041;-68
2023/01/24 02:37:13;;;;;;;29.40;14.35;;;;;;;;;;5072965;28;20310;-68
2023/01/24 02:39:38;;;;;;;26.13;12.85;;;;;;;;;;5070406;28;20028;-68
2023/01/24 02:42:15;;;;;;;23.97;11.80;;;;;;;;;;5067434;28;20638;-68
2023/01/24 02:44:47;;;;;;;31.67;14.15;;;;;;;;;;5069975;28;20484;-68
2023/01/24 02:47:13;;;;;;;32.58;15.05;;;;;;;;;;5073099;28;20113;-68
2023/01/24 02:49:38;;;;;;;30.40;15.23;;;;;;;;;;5069604;28;20057;-67
2023/01/24 02:54:47;;;;;;;32.90;14.70;;;;;;;;;;5072123;28;20047;-68
2023/01/24 02:59:56;;;;;;;32.65;15.23;;;;;;;;;;5060668;28;20082;-69
2023/01/24 03:02:21;;;;;;;33.43;16.20;;;;;;;;;;5060805;28;20883;-67
2023/01/24 03:04:46;;;;;;;30.92;15.40;;;;;;;;;;5070566;28;20276;-68
2023/01/24 03:07:12;;;;;;;29.77;14.37;;;;;;;;;;5073164;28;20037;-67
2023/01/24 03:09:45;;;;;;;26.05;13.63;;;;;;;;;;5072527;28;20748;-68
2023/01/24 03:36:50;;;;;;;27.02;14.30;;;;;;;;;;5065817;28;20044;-68
2023/01/24 03:42:00;;;;;;;26.90;13.18;;;;;;;;;;5071734;28;20039;-67
2023/01/24 03:44:25;;;;;;;23.42;13.18;;;;;;;;;;5060489;28;20028;-68
2023/01/24 03:46:50;;;;;;;26.43;13.77;;;;;;;;;;5078353;28;20177;-68
2023/01/24 03:49:16;;;;;;;26.87;13.00;;;;;;;;;;5058999;28;20039;-67
2023/01/24 03:54:26;;;;;;;28.10;14.30;;;;;;;;;;5067077;28;20031;-67
2023/01/24 03:56:51;;;;;;;34.93;16.30;;;;;;;;;;5070267;28;20115;-68
2023/01/24 03:59:16;;;;;;;26.97;13.67;;;;;;;;;;5065346;28;20024;-68
2023/01/24 04:01:41;;;;;;;24.27;13.17;;;;;;;;;;5065290;28;20617;-67
2023/01/24 04:04:07;;;;;;;27.97;13.50;;;;;;;;;;5064367;28;20313;-68
2023/01/24 04:06:32;;;;;;;28.35;14.57;;;;;;;;;;5070387;28;20800;-68
2023/01/24 04:08:57;;;;;;;27.52;15.13;;;;;;;;;;5067431;28;20020;-67
2023/01/24 04:11:23;;;;;;;28.40;14.93;;;;;;;;;;5068974;28;20450;-67
2023/01/24 04:13:48;;;;;;;29.23;14.47;;;;;;;;;;5069072;28;20078;-67
2023/01/24 04:16:14;;;;;;;25.17;13.97;;;;;;;;;;5068650;28;20946;-68
2023/01/24 04:18:40;;;;;;;22.63;12.88;;;;;;;;;;5075007;28;20304;-68
2023/01/24 04:21:05;;;;;;;24.85;12.85;;;;;;;;;;5055555;28;20062;-68
2023/01/24 04:23:31;;;;;;;25.10;13.88;;;;;;;;;;5069883;28;20058;-67
2023/01/24 04:25:59;;;;;;;23.33;12.90;;;;;;;;;;5069037;28;20029;-67
2023/01/24 04:28:24;;;;;;;25.13;13.68;;;;;;;;;;5067481;28;20067;-67
2023/01/24 04:30:55;;;;;;;25.17;13.18;;;;;;;;;;5065702;28;20052;-68
2023/01/24 04:33:21;;;;;;;22.77;13.00;;;;;;;;;;5066316;28;20457;-67
2023/01/24 04:35:46;;;;;;;26.40;13.63;;;;;;;;;;5066753;28;20056;-67
2023/01/24 04:38:11;;;;;;;24.87;13.50;;;;;;;;;;5066622;28;20727;-67
2023/01/24 04:40:36;;;;;;;28.35;14.80;;;;;;;;;;5072348;28;20273;-68
2023/01/24 04:43:02;;;;;;;29.42;15.10;;;;;;;;;;5068813;28;20036;-67
2023/01/24 04:45:27;;;;;;;30.10;14.68;;;;;;;;;;5075122;28;20067;-68
2023/01/24 04:47:53;;;;;;;30.43;16.13;;;;;;;;;;5070637;28;20074;-67
2023/01/24 04:50:18;;;;;;;34.40;16.98;;;;;;;;;;5059854;28;20357;-68
2023/01/24 04:52:43;;;;;;;36.43;18.67;;;;;;;;;;5045646;28;20151;-66
2023/01/24 04:55:09;;;;;;;36.90;19.07;;;;;;;;;;5063050;28;20027;-67
2023/01/24 04:57:34;;;;;;;40.53;18.40;;;;;;;;;;5070634;28;20273;-68
2023/01/24 04:59:59;;;;;;;38.57;18.33;;;;;;;;;;5073819;28;20020;-67
2023/01/24 05:02:24;;;;;;;30.37;15.13;;;;;;;;;;5074104;28;20107;-67
2023/01/24 05:04:50;;;;;;;28.03;13.90;;;;;;;;;;5072307;28;20029;-67
2023/01/24 05:07:15;;;;;;;28.37;14.13;;;;;;;;;;5055701;28;20354;-68
2023/01/24 05:09:40;;;;;;;27.13;13.43;;;;;;;;;;5076351;28;20529;-67
2023/01/24 05:12:05;;;;;;;26.97;13.83;;;;;;;;;;5073537;28;20288;-67
2023/01/24 05:14:31;;;;;;;29.42;15.10;;;;;;;;;;5075333;28;20031;-67
2023/01/24 05:16:56;;;;;;;26.77;13.48;;;;;;;;;;5063541;28;20036;-68
2023/01/24 05:19:22;;;;;;;24.50;13.97;;;;;;;;;;5060837;28;20405;-67
2023/01/24 05:21:47;;;;;;;30.05;12.95;;;;;;;;;;5061263;28;20381;-67
2023/01/24 05:24:12;;;;;;;27.43;13.50;;;;;;;;;;5063730;28;20027;-67
2023/01/24 05:26:37;;;;;;;29.08;14.18;;;;;;;;;;5047970;28;20385;-68
2023/01/24 05:29:03;;;;;;;29.98;14.48;;;;;;;;;;5065365;28;20150;-68
2023/01/24 05:31:28;;;;;;;25.83;12.67;;;;;;;;;;5063880;28;20032;-66
2023/01/24 05:33:54;;;;;;;27.27;12.57;;;;;;;;;;5066381;28;20028;-68
2023/01/24 05:36:20;;;;;;;20.00;10.98;;;;;;;;;;5075940;28;20040;-67
2023/01/24 05:38:46;;;;;;;22.40;11.60;;;;;;;;;;5074668;28;20489;-68
2023/01/24 05:41:13;;;;;;;22.27;11.18;;;;;;;;;;5061909;28;20032;-66
2023/01/24 05:43:38;;;;;;;21.80;11.88;;;;;;;;;;5068623;28;20028;-67
2023/01/24 05:46:05;;;;;;;27.05;10.85;;;;;;;;;;5066162;28;20044;-67
2023/01/24 05:48:31;;;;;;;21.63;10.55;;;;;;;;;;5067398;28;20029;-67
2023/01/24 05:50:57;;;;;;;21.95;10.75;;;;;;;;;;5063602;28;20041;-67
2023/01/24 05:53:23;;;;;;;21.65;11.43;;;;;;;;;;5068450;28;20540;-67
2023/01/24 05:55:53;;;;;;;22.23;11.90;;;;;;;;;;5063918;28;20044;-68
2023/01/24 05:58:18;;;;;;;27.77;14.00;;;;;;;;;;5072474;28;20055;-68
2023/01/24 06:00:44;;;;;;;29.53;15.80;;;;;;;;;;5069869;28;20460;-68
2023/01/24 06:03:09;;;;;;;26.83;13.37;;;;;;;;;;5071251;28;20036;-67
2023/01/24 06:05:34;;;;;;;26.43;12.87;;;;;;;;;;5070289;28;20321;-68
2023/01/24 06:07:59;;;;;;;25.30;12.87;;;;;;;;;;5069680;28;20281;-67
2023/01/24 06:10:25;;;;;;;25.00;13.17;;;;;;;;;;5068082;28;20043;-69
2023/01/24 06:12:50;;;;;;;29.10;15.97;;;;;;;;;;5070085;28;20022;-67
2023/01/24 06:15:15;;;;;;;33.83;17.20;;;;;;;;;;5067659;28;20359;-67
2023/01/24 06:17:40;;;;;;;29.50;14.90;;;;;;;;;;5068456;28;20059;-68
2023/01/24 06:20:06;;;;;;;23.17;12.90;;;;;;;;;;5072080;28;20496;-67
2023/01/24 06:22:43;;;;;;;24.52;12.00;;;;;;;;;;5073608;28;20477;-67
2023/01/24 06:25:18;;;;;;;26.52;13.30;;;;;;;;;;5067171;28;20029;-67
2023/01/24 06:27:43;;;;;;;28.45;13.43;;;;;;;;;;5065453;28;20587;-67
2023/01/24 06:30:11;;;;;;;28.90;12.20;;;;;;;;;;5071117;28;20020;-68
2023/01/24 06:32:36;;;;;;;28.95;12.57;;;;;;;;;;5067979;28;20032;-68
2023/01/24 06:35:07;;;;;;;25.47;12.57;;;;;;;;;;5075153;28;20028;-68
2023/01/24 06:37:36;;;;;;;24.73;12.00;;;;;;;;;;5071293;28;20066;-67
2023/01/24 06:40:03;;;;;;;24.77;11.32;;;;;;;;;;5068221;28;20024;-68
2023/01/24 06:42:29;;;;;;;34.35;13.75;;;;;;;;;;5068857;28;20570;-69
2023/01/24 06:44:54;;;;;;;28.80;13.82;;;;;;;;;;5066770;28;20049;-67
2023/01/24 06:47:19;;;;;;;25.40;12.40;;;;;;;;;;5063743;28;20028;-69
2023/01/24 06:49:45;;;;;;;34.80;15.60;;;;;;;;;;5072454;28;20053;-68
2023/01/24 06:52:11;;;;;;;28.10;14.10;;;;;;;;;;5070849;28;20028;-69
2023/01/24 06:54:36;;;;;;;27.92;14.23;;;;;;;;;;5066439;28;20326;-68
2023/01/24 06:57:03;;;;;;;22.33;11.83;;;;;;;;;;5085557;28;20428;-68
2023/01/24 06:59:28;;;;;;;18.08;10.15;;;;;;;;;;5070286;28;20473;-69
2023/01/24 07:01:53;;;;;;;19.50;10.05;;;;;;;;;;5055405;28;20124;-68
2023/01/24 07:04:19;;;;;;;18.27;9.83;;;;;;;;;;5071351;28;20079;-69
2023/01/24 07:06:44;;;;;;;21.30;10.00;;;;;;;;;;5073732;28;20364;-67
2023/01/24 07:09:09;;;;;;;23.45;10.38;;;;;;;;;;5068193;28;20024;-68
2023/01/24 07:11:35;;;;;;;20.93;9.90;;;;;;;;;;5066089;28;20037;-68
2023/01/24 07:14:00;;;;;;;19.43;9.47;;;;;;;;;;5064026;28;20293;-68
2023/01/24 07:16:26;;;;;;;20.48;10.27;;;;;;;;;;5051544;28;20040;-67
2023/01/24 07:18:51;;;;;;;23.37;10.37;;;;;;;;;;5065125;28;20020;-69
2023/01/24 07:21:17;;;;;;;22.67;10.90;;;;;;;;;;5068843;28;20071;-68
2023/01/24 07:23:46;;;;;;;23.55;10.65;;;;;;;;;;5066591;28;20047;-67
2023/01/24 07:26:12;;;;;;;24.90;12.02;;;;;;;;;;5065667;28;20030;-67
2023/01/24 07:28:37;;;;;;;31.27;14.00;;;;;;;;;;5074534;28;20028;-64
2023/01/24 07:31:03;;;;;;;27.92;12.75;;;;;;;;;;5079649;28;20031;-66
2023/01/24 07:33:29;;;;;;;24.13;11.68;;;;;;;;;;5060490;28;20037;-66
2023/01/24 07:35:54;;;;;;;26.63;10.50;;;;;;;;;;5072811;28;20047;-66
2023/01/24 07:38:19;;;;;;;22.33;11.27;;;;;;;;;;5064748;28;20047;-66
2023/01/24 07:40:44;;;;;;;20.17;11.27;;;;;;;;;;5065983;28;20389;-66
2023/01/24 07:43:10;;;;;;;24.48;12.80;;;;;;;;;;5068634;28;20284;-67
2023/01/24 07:45:37;;;;;;;26.90;11.80;;;;;;;;;;5065281;28;20037;-68
2023/01/24 07:48:04;;;;;;;25.00;12.73;;;;;;;;;;5053462;28;20028;-71
2023/01/24 07:50:30;;;;;;;26.25;14.27;;;;;;;;;;5069304;28;20505;-71
2023/01/24 07:52:55;;;;;;;25.42;12.13;;;;;;;;;;5054065;28;20041;-71
2023/01/24 07:55:21;;;;;;;21.65;10.65;;;;;;;;;;5070883;28;20028;-72
2023/01/24 07:57:46;;;;;;;18.05;9.38;;;;;;;;;;5070018;28;20042;-72
2023/01/24 08:00:13;;;;;;;17.13;10.07;;;;;;;;;;5070318;28;20081;-72
2023/01/24 08:02:38;;;;;;;20.92;8.98;;;;;;;;;;5070636;28;20285;-71
2023/01/24 08:05:04;;;;;;;20.95;10.80;;;;;;;;;;5071062;28;20037;-72
2023/01/24 08:07:29;;;;;;;21.42;11.15;;;;;;;;;;5065992;28;20028;-71
2023/01/24 08:09:54;;;;;;;20.20;10.83;;;;;;;;;;5072257;28;20515;-72
2023/01/24 08:12:20;;;;;;;24.93;10.87;;;;;;;;;;5067669;28;20513;-72
2023/01/24 08:14:45;;;;;;;19.20;8.70;;;;;;;;;;5069389;28;20285;-71
2023/01/24 08:17:11;;;;;;;23.08;11.18;;;;;;;;;;5059245;28;20028;-72
2023/01/24 08:19:36;;;;;;;18.63;9.57;;;;;;;;;;5072926;28;20099;-71
2023/01/24 08:22:02;;;;;;;18.00;9.32;;;;;;;;;;5069882;28;20139;-71
2023/01/24 08:24:27;;;;;;;19.38;9.52;;;;;;;;;;5072682;28;20063;-72
2023/01/24 08:26:52;;;;;;;18.93;9.93;;;;;;;;;;5058069;28;20503;-72
2023/01/24 08:29:18;;;;;;;15.73;9.27;;;;;;;;;;5075697;28;20032;-72
2023/01/24 08:31:43;;;;;;;20.77;10.45;;;;;;;;;;5065578;28;20024;-72
2023/01/24 08:34:11;;;;;;;19.20;8.90;;;;;;;;;;5070193;28;20417;-71
2023/01/24 08:36:37;;;;;;;19.83;9.80;;;;;;;;;;5044338;28;20032;-71
2023/01/24 08:39:04;;;;;;;14.60;8.52;;;;;;;;;;5061146;28;20020;-72
2023/01/24 08:41:29;;;;;;;16.48;8.60;;;;;;;;;;5061671;28;20028;-72
2023/01/24 08:43:54;;;;;;;19.17;9.10;;;;;;;;;;5058436;28;20793;-72
2023/01/24 08:46:19;;;;;;;19.50;9.43;;;;;;;;;;5072629;28;20514;-72
2023/01/24 08:48:45;;;;;;;15.73;8.50;;;;;;;;;;5072736;28;20273;-72
2023/01/24 08:51:10;;;;;;;24.83;10.07;;;;;;;;;;5071672;28;20044;-72
2023/01/24 08:53:35;;;;;;;22.83;11.57;;;;;;;;;;5073482;28;20282;-71
2023/01/24 08:56:00;;;;;;;21.73;10.90;;;;;;;;;;5072934;28;20056;-72
2023/01/24 08:58:26;;;;;;;17.30;9.07;;;;;;;;;;5074615;28;20040;-71
2023/01/24 09:00:51;;;;;;;33.97;15.38;;;;;;;;;;5064694;28;20025;-71
2023/01/24 09:03:17;;;;;;;18.90;10.23;;;;;;;;;;5066816;28;20036;-72
2023/01/24 09:05:42;;;;;;;20.13;10.18;;;;;;;;;;5060875;28;20462;-71
2023/01/24 09:08:08;;;;;;;21.30;12.47;;;;;;;;;;5063809;28;20079;-72
2023/01/24 09:10:33;;;;;;;16.95;8.90;;;;;;;;;;5046734;28;20787;-71
2023/01/24 09:12:58;;;;;;;15.27;7.80;;;;;;;;;;5065655;28;20024;-71
2023/01/24 09:15:23;;;;;;;15.50;8.07;;;;;;;;;;5065992;28;20369;-70
2023/01/24 09:17:49;;;;;;;15.13;7.80;;;;;;;;;;5048594;28;20037;-70
2023/01/24 09:20:14;;;;;;;14.47;8.40;;;;;;;;;;5077090;28;20027;-71
2023/01/24 09:22:39;;;;;;;20.08;11.75;;;;;;;;;;5075955;28;20020;-70
2023/01/24 09:25:07;;;;;;;13.32;7.80;;;;;;;;;;5072857;28;20044;-70
2023/01/24 09:27:32;;;;;;;14.27;8.00;;;;;;;;;;5069669;28;20099;-69
2023/01/24 09:29:58;;;;;;;15.33;9.23;;;;;;;;;;5058371;28;20119;-72
2023/01/24 09:32:23;;;;;;;14.33;8.57;;;;;;;;;;5060116;28;20401;-71
2023/01/24 09:34:49;;;;;;;26.73;11.57;;;;;;;;;;5052995;28;20841;-72
2023/01/24 09:37:21;;;;;;;26.85;11.65;;;;;;;;;;5065518;28;20304;-72
2023/01/24 09:39:47;;;;;;;39.35;14.38;;;;;;;;;;5066368;28;20059;-72
2023/01/24 09:42:31;;;;;;;85.97;29.25;;;;;;;;;;5047459;28;20055;-69
2023/01/24 09:44:56;;;;;;;24.98;11.43;;;;;;;;;;5066363;28;20053;-71
2023/01/24 09:47:41;;;;;;;17.77;8.50;;;;;;;;;;5066871;28;20148;-72
2023/01/24 09:50:15;;;;;;;15.85;7.40;;;;;;;;;;5056028;28;20040;-73
2023/01/24 09:52:42;;;;;;;13.48;7.47;;;;;;;;;;5068217;28;20098;-73
2023/01/24 09:55:22;;;;;;;16.13;8.13;;;;;;;;;;5062952;28;20060;-73
2023/01/24 09:57:49;;;;;;;20.73;10.05;;;;;;;;;;5063543;28;20025;-73
2023/01/24 10:00:31;;;;;;;15.15;7.45;;;;;;;;;;5068440;28;20031;-73
2023/01/24 10:02:58;;;;;;;14.55;7.60;;;;;;;;;;5080205;28;20028;-73
2023/01/24 10:05:27;;;;;;;12.27;6.95;;;;;;;;;;5064851;28;20036;-73
2023/01/24 10:07:56;;;;;;;12.35;6.93;;;;;;;;;;5067853;28;20406;-73
2023/01/24 10:10:30;;;;;;;14.30;7.40;;;;;;;;;;5065209;28;20033;-73
2023/01/24 10:13:10;;;;;;;13.07;7.60;;;;;;;;;;5062484;28;20098;-72
2023/01/24 10:15:56;;;;;;;11.95;6.60;;;;;;;;;;5065973;28;20024;-73
2023/01/24 10:18:24;;;;;;;14.93;7.40;;;;;;;;;;5044249;28;20036;-72
2023/01/24 10:20:55;;;;;;;13.10;6.95;;;;;;;;;;5056064;28;20032;-72
2023/01/24 10:23:20;;;;;;;14.23;7.00;;;;;;;;;;5055926;28;20060;-73
2023/01/24 10:25:49;;;;;;;28.10;11.53;;;;;;;;;;5061379;28;20489;-72
2023/01/24 10:28:26;;;;;;;34.35;15.23;;;;;;;;;;5061655;28;20036;-73
2023/01/24 10:31:03;;;;;;;14.57;7.65;;;;;;;;;;5059875;28;20036;-73
2023/01/24 10:33:34;;;;;;;14.15;6.70;;;;;;;;;;5062101;28;20029;-73
2023/01/24 10:36:16;;;;;;;12.75;7.97;;;;;;;;;;5070325;28;20095;-71
2023/01/24 10:38:42;;;;;;;12.52;6.75;;;;;;;;;;5067342;28;20032;-72
2023/01/24 10:41:20;;;;;;;14.45;7.70;;;;;;;;;;5066542;28;20086;-72
2023/01/24 10:43:48;;;;;;;13.10;6.85;;;;;;;;;;5073720;28;20048;-72
2023/01/24 10:46:31;;;;;;;16.52;9.10;;;;;;;;;;5068617;28;20460;-73
2023/01/24 10:48:58;;;;;;;20.17;10.77;;;;;;;;;;5073895;28;20036;-73
2023/01/24 10:51:24;;;;;;;14.68;8.55;;;;;;;;;;5072223;28;20043;-72
2023/01/24 10:53:49;;;;;;;12.02;6.85;;;;;;;;;;5065329;28;20138;-69
2023/01/24 10:56:16;;;;;;;12.68;6.70;;;;;;;;;;5067898;28;20089;-71
2023/01/24 10:59:03;;;;;;;12.93;6.60;;;;;;;;;;5064715;28;20115;-73
2023/01/24 11:01:47;;;;;;;12.27;6.55;;;;;;;;;;5063231;28;20029;-73
2023/01/24 11:04:25;;;;;;;11.80;6.60;;;;;;;;;;5051375;28;20020;-72
2023/01/24 11:06:50;;;;;;;15.85;8.23;;;;;;;;;;5067685;28;20025;-72
2023/01/24 11:09:19;;;;;;;13.53;7.20;;;;;;;;;;5067351;28;20512;-71
2023/01/24 11:11:46;;;;;;;19.55;10.40;;;;;;;;;;5075294;28;20299;-73
2023/01/24 11:14:17;;;;;;;19.90;10.10;;;;;;;;;;5073240;28;20093;-72
2023/01/24 11:16:43;;;;;;;15.25;9.25;;;;;;;;;;5071811;28;20605;-73
2023/01/24 11:19:21;;;;;;;22.65;13.05;;;;;;;;;;5070049;28;20025;-72
2023/01/24 11:21:50;;;;;;;29.30;17.35;;;;;;;;;;5084648;28;20494;-73
2023/01/24 11:24:16;;;;;;;21.40;11.95;;;;;;;;;;5070935;28;20028;-72
2023/01/24 11:26:52;;;;;;;18.75;11.55;;;;;;;;;;5070604;28;20500;-73
2023/01/24 11:29:18;;;;;;;14.75;7.38;;;;;;;;;;5072334;28;20512;-73
2023/01/24 11:31:44;;;;;;;11.73;6.60;;;;;;;;;;5067656;28;20024;-73
2023/01/24 11:34:09;;;;;;;12.70;7.63;;;;;;;;;;5069026;28;20774;-73
2023/01/24 11:36:35;;;;;;;19.13;7.43;;;;;;;;;;5071295;28;20025;-73
2023/01/24 11:39:07;;;;;;;22.27;9.03;;;;;;;;;;5068579;28;20059;-73
2023/01/24 11:41:37;;;;;;;26.70;9.35;;;;;;;;;;5058766;28;20028;-73
2023/01/24 11:44:18;;;;;;;16.45;8.32;;;;;;;;;;5069781;28;20032;-72
2023/01/24 11:46:49;;;;;;;13.32;6.95;;;;;;;;;;5069892;28;20490;-72
2023/01/24 11:49:17;;;;;;;12.93;6.90;;;;;;;;;;5068569;28;20033;-72
2023/01/24 11:51:55;;;;;;;11.33;5.97;;;;;;;;;;5069309;28;20032;-71
2023/01/24 11:54:38;;;;;;;17.80;7.20;;;;;;;;;;5069935;28;20196;-71
2023/01/24 11:57:09;;;;;;;19.75;8.02;;;;;;;;;;5067562;28;20084;-73
2023/01/24 11:59:40;;;;;;;14.90;7.13;;;;;;;;;;5066935;28;20021;-72
2023/01/24 12:02:24;;;;;;;10.93;5.50;;;;;;;;;;5047513;28;20116;-72
2023/01/24 12:04:59;;;;;;;10.88;5.15;;;;;;;;;;5069280;28;20445;-73
2023/01/24 12:07:43;;;;;;;8.85;4.90;;;;;;;;;;5072431;28;20101;-73
2023/01/24 12:10:11;;;;;;;8.57;4.78;;;;;;;;;;5068156;28;20028;-71
2023/01/24 12:12:49;;;;;;;7.75;4.63;;;;;;;;;;5058174;28;20174;-72
2023/01/24 12:15:17;;;;;;;8.90;4.57;;;;;;;;;;5071782;28;20032;-72
2023/01/24 12:17:42;;;;;;;6.95;3.78;;;;;;;;;;5064663;28;20032;-73
2023/01/24 12:20:10;;;;;;;7.97;4.60;;;;;;;;;;5063907;28;20036;-72
2023/01/24 12:22:36;;;;;;;6.97;4.28;;;;;;;;;;5063561;28;20175;-72
2023/01/24 12:25:20;;;;;;;7.85;4.40;;;;;;;;;;5061503;28;20111;-72
2023/01/24 12:27:46;;;;;;;7.72;4.68;;;;;;;;;;5058386;28;20440;-73
2023/01/24 12:30:19;;;;;;;7.25;4.22;;;;;;;;;;5057065;28;20048;-72
2023/01/24 12:32:58;;;;;;;7.22;4.55;;;;;;;;;;5049887;28;20528;-72
2023/01/24 12:35:29;;;;;;;8.98;5.57;;;;;;;;;;5073759;28;20037;-72
2023/01/24 12:37:57;;;;;;;7.70;4.60;;;;;;;;;;5069186;28;20032;-72
2023/01/24 12:40:35;;;;;;;8.82;4.90;;;;;;;;;;5060792;28;20047;-72
2023/01/24 12:43:06;;;;;;;9.77;5.22;;;;;;;;;;5065627;28;20457;-72
2023/01/24 12:45:41;;;;;;;10.27;5.13;;;;;;;;;;5063745;28;20045;-71
2023/01/24 12:48:16;;;;;;;8.10;4.97;;;;;;;;;;5064033;28;20028;-72
2023/01/24 12:50:42;;;;;;;9.85;5.15;;;;;;;;;;5064176;28;20052;-73
2023/01/24 12:53:14;;;;;;;10.75;5.90;;;;;;;;;;5061953;28;20585;-72
2023/01/24 12:55:45;;;;;;;10.02;5.93;;;;;;;;;;5082679;28;20475;-70
2023/01/24 12:58:18;;;;;;;12.88;6.03;;;;;;;;;;5064951;28;20025;-71
2023/01/24 13:00:46;;;;;;;11.93;6.22;;;;;;;;;;5063883;28;20400;-71
2023/01/24 13:03:17;;;;;;;12.35;6.78;;;;;;;;;;5064309;28;20027;-71
2023/01/24 13:05:47;;;;;;;11.73;6.05;;;;;;;;;;5062140;28;20062;-72
2023/01/24 13:08:31;;;;;;;12.77;6.70;;;;;;;;;;5059169;28;20035;-73
2023/01/24 13:10:56;;;;;;;12.98;6.55;;;;;;;;;;5047643;28;20064;-72
2023/01/24 13:13:28;;;;;;;13.10;6.57;;;;;;;;;;5060747;28;20028;-72
2023/01/24 13:16:05;;;;;;;13.73;7.93;;;;;;;;;;5047308;28;20662;-75
2023/01/24 13:18:34;;;;;;;13.15;6.07;;;;;;;;;;5062536;28;20028;-74
2023/01/24 13:21:10;;;;;;;15.43;7.78;;;;;;;;;;5060706;28;21755;-74
2023/01/24 13:23:39;;;;;;;16.30;8.93;;;;;;;;;;5063587;28;20033;-74
2023/01/24 13:26:12;;;;;;;13.93;6.93;;;;;;;;;;5060004;28;20045;-72
2023/01/24 13:28:41;;;;;;;12.60;7.25;;;;;;;;;;5059833;28;20038;-72
2023/01/24 13:31:21;;;;;;;14.43;7.60;;;;;;;;;;5059471;28;20032;-73
2023/01/24 13:33:49;;;;;;;14.48;7.38;;;;;;;;;;5055949;28;20165;-73
2023/01/24 13:36:17;;;;;;;14.80;6.82;;;;;;;;;;5059771;28;20032;-70
2023/01/24 13:38:44;;;;;;;18.67;8.20;;;;;;;;;;5058612;28;20413;-73
2023/01/24 13:41:13;;;;;;;16.25;8.35;;;;;;;;;;5059753;28;20035;-72
2023/01/24 13:43:55;;;;;;;12.90;7.38;;;;;;;;;;5064157;28;20044;-73
2023/01/24 13:46:40;;;;;;;14.75;7.88;;;;;;;;;;5061878;28;20095;-73
2023/01/24 13:49:16;;;;;;;13.50;7.10;;;;;;;;;;5067552;28;20127;-73
2023/01/24 13:51:50;;;;;;;16.10;7.93;;;;;;;;;;5070577;28;20021;-72
2023/01/24 13:54:16;;;;;;;12.93;7.13;;;;;;;;;;5050851;28;20040;-73
2023/01/24 13:57:00;;;;;;;15.43;8.38;;;;;;;;;;5070406;28;20036;-75
2023/01/24 13:59:25;;;;;;;14.13;7.28;;;;;;;;;;5064656;28;20055;-74
2023/01/24 14:01:51;;;;;;;14.97;7.63;;;;;;;;;;5064378;28;20072;-75
2023/01/24 14:04:16;;;;;;;15.67;7.63;;;;;;;;;;5072089;28;20288;-74
2023/01/24 14:06:43;;;;;;;16.30;7.68;;;;;;;;;;5063235;28;20292;-74
2023/01/24 14:09:21;;;;;;;15.60;8.38;;;;;;;;;;5064482;28;20119;-75
2023/01/24 14:11:58;;;;;;;15.77;8.27;;;;;;;;;;5059504;28;20040;-74
2023/01/24 14:14:49;;;;;;;18.00;8.80;;;;;;;;;;5061898;28;20028;-79
2023/01/24 14:17:25;;;;;;;14.48;8.07;;;;;;;;;;5050868;28;20055;-76
2023/01/24 14:19:51;;;;;;;20.15;8.45;;;;;;;;;;5072994;28;20036;-73
2023/01/24 14:22:19;;;;;;;16.85;7.90;;;;;;;;;;5067812;28;20032;-73
2023/01/24 14:24:50;;;;;;;16.83;8.52;;;;;;;;;;5070980;28;20154;-73
2023/01/24 14:27:20;;;;;;;16.05;7.53;;;;;;;;;;5071449;28;20082;-74
2023/01/24 14:29:47;;;;;;;16.98;8.57;;;;;;;;;;5072654;28;20021;-74
2023/01/24 14:38:14;;;;;;;24.25;13.43;;;;;;;;;;5004508;28;20569;-71
2023/01/24 14:46:51;;;;;;;21.77;10.32;;;;;;;;;;5003766;28;20084;-69
2023/01/24 14:52:20;;;;;;;25.77;12.75;;;;;;;;;;5001150;28;20076;-70
2023/01/24 15:01:25;;;;;;;26.33;13.10;;;;;;;;;;5001557;28;20030;-68
2023/01/24 15:31:21;;;;;;;20.23;10.05;;;;;;;;;;5005158;28;20080;-69
2023/01/24 15:40:35;;;;;;;24.25;11.05;;;;;;;;;;5004462;28;20396;-70
2023/01/24 15:52:06;;;;;;;22.20;11.40;;;;;;;;;;5000978;28;20055;-71
2023/01/24 15:57:37;;;;;;;19.30;9.65;;;;;;;;;;5001934;28;20590;-72
2023/01/24 16:03:05;;;;;;;17.60;7.65;;;;;;;;;;5002806;28;20110;-71
2023/01/24 16:17:42;;;;;;;35.22;9.35;;;;;;;;;;5006251;28;20052;-72
2023/01/24 16:23:10;;;;;;;23.13;9.05;;;;;;;;;;5002707;28;20045;-72
2023/01/24 16:28:38;;;;;;;16.30;7.57;;;;;;;;;;5003003;28;20294;-69
2023/01/24 16:34:06;;;;;;;13.50;7.05;;;;;;;;;;5003048;28;20479;-71
2023/01/24 17:05:18;;;;;;;27.58;11.43;;;;;;;;;;5001262;28;20123;-73
2023/01/24 17:11:11;;;;;;;14.48;7.72;;;;;;;;;;5004056;28;20516;-73